Gulf Shores, AL (36542)

12:12 PM CDT on August 25, 2016 (GMT -0500)
West Beach | | Change Station

Elev 39 ft 30.25 °N, 87.72 °W | Updated 2 minutes ago

Overcast
Overcast
87.6 °F
Feels Like 99 °F
N
4.0
Wind Variable Wind from ENE
Gusts 4.0 mph

Today
High -- | Low -- °F
--% Chance of Precip.
Yesterday
High -- | Low -- °F
Precip. -- in
Pressure 30.12 in
Visibility 10.0 miles
Clouds Overcast 8500 ft
Heat Index 99 °F
Dew Point 76 °F
Humidity 69%
Rainfall 0.00 in
Snow Depth Not available.
6:24 AM 7:21 PM
Last Quarter, 44% visible
METAR KJKA 251655Z AUTO 10013KT 10SM OVC085 31/22 A3012 RMK AO2 T03100216
Pressure 30.12 in
Visibility 10.0 miles
Clouds Overcast 8500 ft
Heat Index 99 °F
Dew Point 76 °F
Humidity 69%
Rainfall 0.00 in
Snow Depth Not available.
6:24 AM 7:21 PM
Last Quarter, 44% visible
METAR KJKA 251655Z AUTO 10013KT 10SM OVC085 31/22 A3012 RMK AO2 T03100216
A tropical disturbance pushing toward the Bahamas, is expected to develop into a tropical depression or storm, and will likely target Florida and the Gulf Coast this weekend into next week.

Right now, the disturbance remains a broad area of low pressure pushing through the Dominican Republic and Haiti, headed toward the southeast Bahamas. Rainfall totals over 3 inches (with locally higher amounts) are expected in HispaƱiola, particularly over elevated terrain.

10-Day Weather Forecast

Almanac

Astronomy

Aug. 25, 2016 Rise Set
Actual Time
Civil Twilight
Nautical Twilight
Astronomical Twilight
Moon
Length of Visible Light
Length of Day
Tomorrow will be .
, % of the Moon is Illuminated

Today's Extremes

State Highs State Lows

Community

WunderPhotos

Upload Photos

1,934,877 photos uploaded!

WunderBlog® & News

Nearby

Air Quality

  Air Quality AQ Index Pollutant
Not available.

Snow Depth

Station Depth Elevation

Earthquake Activity

City Distance Mag. Time & Date
Minimum magnitude displayed is 2.5.

Coastal Water Temperatures

Place Temperature

Stations

Nearby Weather Stations

Station Location Temp. Windchill Dew Point Humidity Wind Precip. Elev Updated Type
                   

Watches & Warnings

There are currently no watches in effect.